Dillingham Airport
PADL : now visible

Airfield :











YOU CAN JOIN US ON...

 
LOGIN :

Register | Disclaimer

   EN    FR    IT 

 









Legend :    VFR   Marginal VFR   IFR   Intensive IFR   Very Intensive IFR
Visi :
Ceiling :
>= 8 km
>= 3000ft
5 to 8 km
1000 to 3000 ft
1500m to 5 km
500 to 1000 ft
800 to 1500m
200 to 500 ft
< 800m
< 200 ft
Symbols :   Thunderstorms  Fog  Heavy snow  Heavy precipitations  Wind > 20 kt






- Airport Elevation : 81 ft
- IATA code : DLG


PADL - Dillingham

CURRENT METAR :
  • 261356Z AUTO VRB05KT 10SM -RA OVC049 04/03 A2947 RMK AO2 SLP984 P0001 T00390033

EXPIRED METARs :
  • 261303Z AUTO VRB03KT 10SM -RA SCT029 OVC038 04/03 A2945 RMK AO2 P0001
  • 261256Z AUTO VRB03KT 10SM -RA BKN029 BKN040 OVC065 04/03 A2945 RMK AO2 RAB48 SLP977 P0000 T00390033
  • 261231Z AUTO VRB03KT 10SM BKN027 OVC080 03/03 A2945 RMK AO2
  • 261156Z AUTO VRB04KT 10SM SCT029 BKN065 OVC080 04/03 A2944 RMK AO2 SLP973 60000 70016 T00390033 10044 20022 53004

TAF PADL
Valid from the 26 at 13:00 until the 27 at 12:00 UTC


261313Z 2613/2712 26005KT P6SM -RA SCT030 OVC040
TEMPO 2613/2616 3SM -RA BR BKN025 OVC035
FM261800 25010G18KT P6SM SCT025 BKN050
FM270300 24007KT P6SM BKN050
PAZA FIR / North America



MET'MAP, your aeronautical weather chart ! - Copyright ORBIFLY December 2007 - Disclaimer

ORBIFLY MET'MAP TEAM :

Programming & Development : Alexandra Zaïnal
Concept & original design : Baudouin d'Aumeries
Assistance for programming : Marc-Olivier Méhu
Technical & hardware support : Manuel Goepfert

Contact : metmap@orbifly.com




SOURCES & CREDITS :

   NOAA       Earth
Advisory